Time;durP1;ratioP1;P1;durP2;ratioP2;P2;SDS_P1;SDS_P2;PMS_P1;PMS_P2;Temp;Humidity;BMP_temperature;BMP_pressure;BME280_temperature;BME280_humidity;BME280_pressure;Samples;Min_cycle;Max_cycle;Signal;HPM_P1;HPM_P2
2023/06/13 00:00:27;;;;;;;3.95;2.45;;;;;;;24.65;58.02;98119.50;2070333;28;20045;-48
2023/06/13 00:01:30;;;;;;;3.30;3.00;;;;;;;24.65;57.71;98122.22;2071934;28;20060;-49
2023/06/13 00:02:33;;;;;;;5.95;2.55;;;;;;;24.66;57.62;98123.06;2068148;28;20152;-48
2023/06/13 00:03:34;;;;;;;3.50;2.67;;;;;;;24.66;57.61;98121.16;2070554;28;20051;-50
2023/06/13 00:04:35;;;;;;;6.05;3.40;;;;;;;24.67;57.58;98128.19;2072827;28;20399;-50
2023/06/13 00:05:37;;;;;;;2.78;2.53;;;;;;;24.65;57.68;98130.34;2073698;28;20053;-49
2023/06/13 00:06:38;;;;;;;3.72;2.97;;;;;;;24.66;58.09;98131.19;2072266;28;20046;-50
2023/06/13 00:07:40;;;;;;;3.03;2.30;;;;;;;24.67;58.18;98130.91;2070598;28;20095;-49
2023/06/13 00:08:41;;;;;;;4.13;2.78;;;;;;;24.65;58.01;98129.53;2070573;28;20508;-49
2023/06/13 00:09:43;;;;;;;2.80;2.45;;;;;;;24.65;58.06;98134.94;2071986;28;20229;-49
2023/06/13 00:10:44;;;;;;;3.13;2.17;;;;;;;24.66;57.81;98136.59;2070249;28;20076;-50
2023/06/13 00:11:46;;;;;;;3.92;2.72;;;;;;;24.67;57.98;98132.81;2070232;28;20133;-49
2023/06/13 00:12:49;;;;;;;3.95;2.78;;;;;;;24.66;58.25;98133.91;2073267;28;20896;-48
2023/06/13 00:13:51;;;;;;;4.80;2.97;;;;;;;24.66;57.76;98132.00;2067180;28;20053;-48
2023/06/13 00:14:51;;;;;;;4.53;3.25;;;;;;;24.67;58.16;98130.91;2069270;28;20061;-49
2023/06/13 00:15:56;;;;;;;3.17;2.75;;;;;;;24.67;57.87;98124.69;2073548;28;20069;-47
2023/06/13 00:16:58;;;;;;;4.07;3.45;;;;;;;24.65;58.07;98119.50;2071969;28;20064;-49
2023/06/13 00:17:59;;;;;;;3.90;2.80;;;;;;;24.65;58.18;98124.91;2072044;28;20046;-49
2023/06/13 00:19:01;;;;;;;3.90;2.70;;;;;;;24.66;58.27;98123.06;2069171;28;20192;-48
2023/06/13 00:20:04;;;;;;;3.05;2.75;;;;;;;24.65;58.08;98129.53;2069328;28;20467;-48
2023/06/13 00:21:06;;;;;;;3.42;2.85;;;;;;;24.65;57.89;98122.22;2069540;28;20068;-48
2023/06/13 00:22:10;;;;;;;4.13;3.45;;;;;;;24.67;57.91;98120.06;2071727;28;20053;-49
2023/06/13 00:23:10;;;;;;;3.22;2.50;;;;;;;24.65;57.98;98124.91;2070589;28;20315;-50
2023/06/13 00:24:12;;;;;;;3.95;2.88;;;;;;;24.66;58.12;98126.56;2073008;28;20112;-48
2023/06/13 00:25:13;;;;;;;2.75;2.55;;;;;;;24.66;58.04;98123.06;2070006;28;20057;-52
2023/06/13 00:26:15;;;;;;;2.67;2.47;;;;;;;24.66;58.17;98129.28;2065055;28;20060;-50
2023/06/13 00:27:15;;;;;;;2.95;2.70;;;;;;;24.65;57.83;98130.34;2069590;28;20391;-52
2023/06/13 00:28:17;;;;;;;3.92;2.92;;;;;;;24.65;58.28;98124.91;2070850;28;20503;-52
2023/06/13 00:29:18;;;;;;;2.72;2.35;;;;;;;24.66;58.35;98129.28;2069447;28;20141;-51
2023/06/13 00:30:20;;;;;;;3.78;2.85;;;;;;;24.66;58.06;98125.75;2071745;28;20423;-49
2023/06/13 00:31:24;;;;;;;2.47;2.22;;;;;;;24.66;58.06;98131.19;2068889;28;20049;-51
2023/06/13 00:32:26;;;;;;;4.00;2.53;;;;;;;24.65;57.98;98130.34;2067057;28;20060;-49
2023/06/13 00:33:31;;;;;;;3.88;2.42;;;;;;;24.65;57.90;98133.06;2067787;28;20057;-48
2023/06/13 00:34:33;;;;;;;3.55;3.08;;;;;;;24.65;58.38;98129.53;2069994;28;20079;-53
2023/06/13 00:35:35;;;;;;;4.70;2.70;;;;;;;24.65;58.31;98130.34;2070419;28;20482;-50
2023/06/13 00:36:37;;;;;;;2.95;2.40;;;;;;;24.66;57.88;98126.56;2071439;28;21304;-49
2023/06/13 00:37:38;;;;;;;2.58;2.30;;;;;;;24.66;58.42;98123.06;2070670;28;20376;-53
2023/06/13 00:38:40;;;;;;;3.20;2.85;;;;;;;24.66;57.97;98126.56;2073058;28;20486;-50
2023/06/13 00:39:41;;;;;;;3.17;2.45;;;;;;;24.66;58.27;98123.88;2065925;28;20049;-49
2023/06/13 00:40:43;;;;;;;3.30;2.58;;;;;;;24.68;58.03;98129.84;2067385;28;20056;-51
2023/06/13 00:41:43;;;;;;;2.72;2.20;;;;;;;24.67;58.23;98124.69;2070640;28;20557;-52
2023/06/13 00:42:45;;;;;;;2.60;2.40;;;;;;;24.65;58.06;98124.91;2069872;28;20626;-53
2023/06/13 00:43:46;;;;;;;4.18;2.85;;;;;;;24.65;58.45;98118.69;2071841;28;20495;-51
2023/06/13 00:44:48;;;;;;;4.85;2.72;;;;;;;24.66;57.96;98121.16;2068268;28;20562;-50
2023/06/13 00:45:49;;;;;;;3.78;2.70;;;;;;;24.67;58.04;98119.25;2066448;28;20061;-53
2023/06/13 00:46:52;;;;;;;4.40;2.63;;;;;;;24.68;58.21;98123.59;2071515;28;20053;-51
2023/06/13 00:47:57;;;;;;;2.53;2.33;;;;;;;24.65;57.86;98122.22;2068773;28;20132;-49
2023/06/13 00:48:59;;;;;;;2.55;2.35;;;;;;;24.66;58.08;98125.75;2068475;28;20064;-51
2023/06/13 00:50:00;;;;;;;3.60;2.63;;;;;;;24.65;58.21;98121.41;2067073;28;20179;-53
2023/06/13 00:51:02;;;;;;;4.95;3.03;;;;;;;24.66;58.06;98114.91;2069782;28;20433;-48
2023/06/13 00:52:04;;;;;;;3.08;2.72;;;;;;;24.65;58.00;98114.06;2066965;28;20572;-51
2023/06/13 00:53:09;;;;;;;3.05;2.80;;;;;;;24.66;58.24;98121.16;2070650;28;20081;-50
2023/06/13 00:54:13;;;;;;;3.60;2.45;;;;;;;24.65;58.25;98114.06;2070936;28;20049;-52
2023/06/13 00:55:15;;;;;;;4.15;3.10;;;;;;;24.64;57.92;98119.75;2069953;28;20050;-51
2023/06/13 00:56:16;;;;;;;3.83;2.55;;;;;;;24.65;58.60;98124.91;2070784;28;20144;-49
2023/06/13 00:57:18;;;;;;;2.80;2.40;;;;;;;24.64;58.40;98126.00;2069143;28;20052;-49
2023/06/13 00:58:19;;;;;;;2.85;2.30;;;;;;;24.66;58.29;98125.75;2065981;28;20050;-50
2023/06/13 00:59:21;;;;;;;3.92;2.50;;;;;;;24.65;58.33;98129.53;2069855;28;20049;-49
2023/06/13 01:00:25;;;;;;;4.38;2.83;;;;;;;24.65;58.38;98130.34;2066709;28;20041;-49
2023/06/13 01:01:27;;;;;;;3.15;2.85;;;;;;;24.65;58.35;98133.06;2069967;28;20056;-48
2023/06/13 01:02:30;;;;;;;3.00;2.80;;;;;;;24.65;58.18;98135.75;2067399;28;20061;-50
2023/06/13 01:03:35;;;;;;;2.97;2.70;;;;;;;24.65;58.62;98135.75;2069820;28;20054;-50
2023/06/13 01:04:37;;;;;;;3.55;2.72;;;;;;;24.65;58.12;98132.25;2068324;28;20502;-51
2023/06/13 01:05:38;;;;;;;3.33;3.03;;;;;;;24.65;58.38;98132.25;2070858;28;21569;-52
2023/06/13 01:06:44;;;;;;;2.95;2.58;;;;;;;24.64;58.22;98133.31;2071072;28;20148;-48
2023/06/13 01:07:46;;;;;;;2.97;2.13;;;;;;;24.65;58.52;98135.75;2072578;28;20059;-52
2023/06/13 01:08:47;;;;;;;2.90;2.60;;;;;;;24.64;58.47;98134.13;2069600;28;20069;-51
2023/06/13 01:09:49;;;;;;;2.92;2.58;;;;;;;24.64;58.48;98131.44;2069416;28;20291;-48
2023/06/13 01:10:59;;;;;;;4.72;2.72;;;;;;;24.65;58.80;98130.34;2068423;28;20056;-53
2023/06/13 01:12:10;;;;;;;3.33;3.03;;;;;;;24.63;58.80;98120.84;2070513;28;20045;-53
2023/06/13 01:13:16;;;;;;;2.50;2.30;;;;;;;24.62;58.94;98125.44;2070894;28;20045;-52
2023/06/13 01:14:24;;;;;;;3.38;2.50;;;;;;;24.62;58.56;98130.84;2069648;28;20132;-49
2023/06/13 01:15:26;;;;;;;3.03;2.63;;;;;;;24.62;58.74;98124.63;2069112;28;20511;-55
2023/06/13 01:16:36;;;;;;;3.83;3.08;;;;;;;24.62;58.37;98133.56;2070835;28;20049;-53
2023/06/13 01:17:44;;;;;;;2.55;2.35;;;;;;;24.63;58.31;98126.28;2071466;28;20084;-49
2023/06/13 01:18:49;;;;;;;3.08;2.85;;;;;;;24.62;58.82;98124.63;2071242;28;20053;-49
2023/06/13 01:19:53;;;;;;;2.45;2.25;;;;;;;24.62;58.80;98130.84;2069852;28;20053;-53
2023/06/13 01:20:56;;;;;;;2.50;2.30;;;;;;;24.62;58.53;98125.44;2072348;28;20096;-54
2023/06/13 01:21:57;;;;;;;3.10;2.53;;;;;;;24.62;58.49;98119.19;2068235;28;20049;-52
2023/06/13 01:23:14;;;;;;;2.33;2.03;;;;;;;24.62;58.26;98124.63;2066402;28;20057;-52
2023/06/13 01:24:24;;;;;;;3.45;2.83;;;;;;;24.60;58.52;98119.47;2068392;28;20531;-49
2023/06/13 01:25:40;;;;;;;2.83;2.30;;;;;;;24.59;58.80;98115.09;2066413;28;20045;-49
2023/06/13 01:26:51;;;;;;;3.45;2.58;;;;;;;24.58;58.70;98116.19;2070689;28;20156;-51
2023/06/13 01:27:54;;;;;;;3.40;2.53;;;;;;;24.60;58.67;98119.47;2070477;28;20073;-50
2023/06/13 01:28:58;;;;;;;3.60;2.72;;;;;;;24.60;58.52;98114.03;2067364;28;20508;-51
2023/06/13 01:30:01;;;;;;;4.50;2.80;;;;;;;24.62;58.54;98116.47;2068138;28;20056;-49
2023/06/13 01:31:06;;;;;;;5.15;2.85;;;;;;;24.62;59.12;98114.59;2069768;28;20045;-52
2023/06/13 01:32:09;;;;;;;3.40;2.30;;;;;;;24.62;58.41;98111.06;2066600;28;20045;-49
2023/06/13 01:33:11;;;;;;;2.85;2.63;;;;;;;24.61;58.87;98106.72;2071157;28;20077;-52
2023/06/13 01:34:13;;;;;;;2.90;2.70;;;;;;;24.62;58.71;98111.06;2068176;28;20064;-50
2023/06/13 01:35:15;;;;;;;3.25;2.83;;;;;;;24.61;58.89;98112.97;2071259;28;20041;-49
2023/06/13 01:36:17;;;;;;;2.63;2.42;;;;;;;24.60;58.53;98111.34;2069391;28;20180;-48
2023/06/13 01:37:19;;;;;;;3.20;2.50;;;;;;;24.61;58.71;98106.72;2072224;28;20053;-52
2023/06/13 01:38:20;;;;;;;2.97;2.67;;;;;;;24.63;58.40;98110.81;2070655;28;20062;-51
2023/06/13 01:39:22;;;;;;;2.70;2.50;;;;;;;24.61;58.67;98104.81;2067069;28;20096;-48
2023/06/13 01:40:23;;;;;;;4.97;3.13;;;;;;;24.62;58.98;98113.78;2070835;28;20510;-53
2023/06/13 01:41:25;;;;;;;2.85;2.30;;;;;;;24.61;58.96;98104.81;2069719;28;20053;-52
2023/06/13 01:42:27;;;;;;;3.45;2.50;;;;;;;24.63;58.84;98113.53;2067324;28;20049;-52
2023/06/13 01:43:29;;;;;;;2.70;2.50;;;;;;;24.61;58.67;98115.66;2069846;28;20045;-50
2023/06/13 01:44:30;;;;;;;3.72;2.63;;;;;;;24.61;59.07;98104.00;2071138;28;20053;-55
2023/06/13 01:45:32;;;;;;;2.92;2.50;;;;;;;24.61;59.03;98107.53;2070295;28;20089;-51
2023/06/13 01:46:44;;;;;;;2.13;1.92;;;;;;;24.60;58.87;98110.50;2072425;28;20132;-52
2023/06/13 01:47:58;;;;;;;3.55;2.13;;;;;;;24.60;59.05;98111.34;2070783;28;20053;-52
2023/06/13 01:49:09;;;;;;;3.65;2.67;;;;;;;24.59;58.44;98117.00;2070522;28;20057;-52
2023/06/13 01:50:18;;;;;;;2.40;2.05;;;;;;;24.57;58.52;98119.94;2069984;28;20121;-50
2023/06/13 01:51:27;;;;;;;2.80;2.47;;;;;;;24.57;58.82;98109.09;2073478;28;20041;-50
2023/06/13 01:52:39;;;;;;;3.33;2.60;;;;;;;24.57;58.61;98106.41;2070768;28;20050;-48
2023/06/13 01:53:48;;;;;;;3.80;3.33;;;;;;;24.58;58.78;98109.94;2070054;28;20063;-53
2023/06/13 01:54:55;;;;;;;2.35;2.15;;;;;;;24.58;58.81;98113.47;2066891;28;20571;-54
2023/06/13 01:56:00;;;;;;;3.05;2.10;;;;;;;24.58;58.86;98112.66;2071885;28;20076;-55
2023/06/13 01:57:05;;;;;;;3.45;2.92;;;;;;;24.59;59.12;98114.28;2072265;28;20127;-54
2023/06/13 01:58:11;;;;;;;2.63;2.40;;;;;;;24.59;58.70;98115.09;2072013;28;20045;-49
2023/06/13 01:59:16;;;;;;;3.75;2.75;;;;;;;24.60;58.80;98107.78;2070994;28;20495;-55
2023/06/13 02:00:19;;;;;;;3.15;2.20;;;;;;;24.59;59.21;98104.25;2068407;28;20075;-53
2023/06/13 02:01:21;;;;;;;3.97;3.28;;;;;;;24.57;58.47;98100.97;2072497;28;20437;-55
2023/06/13 02:02:23;;;;;;;3.60;2.70;;;;;;;24.59;58.72;98101.53;2071036;28;20046;-55
2023/06/13 02:03:26;;;;;;;3.33;2.72;;;;;;;24.60;58.68;98103.19;2071474;28;20101;-55
2023/06/13 02:04:28;;;;;;;15.95;2.42;;;;;;;24.60;58.67;98108.63;2071993;28;20049;-48
2023/06/13 02:05:30;;;;;;;2.63;2.42;;;;;;;24.60;58.80;98103.19;2068254;28;20164;-48
2023/06/13 02:06:32;;;;;;;2.65;2.47;;;;;;;24.61;58.90;98106.72;2070038;28;21156;-50
2023/06/13 02:07:36;;;;;;;2.60;2.20;;;;;;;24.61;58.67;98112.16;2068533;28;20057;-48
2023/06/13 02:08:37;;;;;;;3.53;2.53;;;;;;;24.60;58.96;98105.06;2073605;28;20049;-51
2023/06/13 02:09:39;;;;;;;4.15;2.40;;;;;;;24.59;58.85;98109.69;2070258;28;20099;-49
2023/06/13 02:10:40;;;;;;;2.83;2.63;;;;;;;24.59;58.88;98106.97;2072581;28;20057;-53
2023/06/13 02:11:42;;;;;;;4.00;2.63;;;;;;;24.59;58.83;98106.97;2072744;28;20053;-53
2023/06/13 02:12:43;;;;;;;2.80;2.50;;;;;;;24.60;58.62;98111.34;2069446;28;20136;-48
2023/06/13 02:13:47;;;;;;;3.13;2.55;;;;;;;24.60;58.52;98107.78;2071087;28;20065;-54
2023/06/13 02:14:48;;;;;;;2.72;2.08;;;;;;;24.60;58.42;98097.78;2072150;28;20196;-52
2023/06/13 02:15:50;;;;;;;2.63;2.38;;;;;;;24.59;58.85;98092.59;2071127;28;20988;-53
2023/06/13 02:16:51;;;;;;;4.32;2.80;;;;;;;24.59;58.54;98101.53;2072605;28;20427;-52
2023/06/13 02:17:55;;;;;;;2.47;2.28;;;;;;;24.61;58.63;98098.59;2068291;28;20057;-50
2023/06/13 02:18:58;;;;;;;2.17;1.98;;;;;;;24.58;58.90;98102.63;2070265;28;20567;-52
2023/06/13 02:20:00;;;;;;;3.92;2.70;;;;;;;24.59;58.70;98095.31;2068739;28;20046;-48
2023/06/13 02:21:01;;;;;;;3.70;2.30;;;;;;;24.59;58.68;98093.41;2071934;28;20060;-52
2023/06/13 02:22:03;;;;;;;2.60;2.40;;;;;;;24.58;59.01;98089.06;2069765;28;20798;-50
2023/06/13 02:23:03;;;;;;;3.20;2.90;;;;;;;24.58;58.69;98089.06;2072641;28;20045;-48
2023/06/13 02:24:06;;;;;;;3.00;2.10;;;;;;;24.58;58.67;98089.06;2069085;28;20152;-51
2023/06/13 02:25:07;;;;;;;2.78;2.28;;;;;;;24.59;58.93;98081.75;2067970;28;20722;-53
2023/06/13 02:26:09;;;;;;;3.10;2.55;;;;;;;24.59;58.62;98081.75;2072017;28;20318;-49
2023/06/13 02:27:10;;;;;;;4.00;2.75;;;;;;;24.59;58.44;98077.13;2071506;28;20136;-51
2023/06/13 02:28:12;;;;;;;3.50;2.92;;;;;;;24.60;58.70;98078.78;2068076;28;20365;-51
2023/06/13 02:29:15;;;;;;;2.95;2.45;;;;;;;24.60;58.67;98077.94;2071430;28;20062;-55
2023/06/13 02:30:17;;;;;;;2.42;2.08;;;;;;;24.58;58.75;98075.50;2068445;28;20076;-50
2023/06/13 02:31:18;;;;;;;4.30;2.40;;;;;;;24.59;58.92;98077.13;2070756;28;20168;-50
2023/06/13 02:32:22;;;;;;;2.72;2.15;;;;;;;24.59;58.80;98076.31;2069426;28;21707;-51
2023/06/13 02:33:23;;;;;;;3.03;2.45;;;;;;;24.59;58.58;98081.75;2071722;28;20049;-54
2023/06/13 02:34:25;;;;;;;2.33;2.13;;;;;;;24.59;59.16;98077.13;2070617;28;20518;-55
2023/06/13 02:35:26;;;;;;;2.88;2.42;;;;;;;24.59;58.88;98085.28;2072759;28;20045;-50
2023/06/13 02:36:28;;;;;;;4.55;2.50;;;;;;;24.58;59.03;98075.50;2071376;28;20095;-53
2023/06/13 02:37:29;;;;;;;3.60;2.25;;;;;;;24.57;58.93;98073.84;2071765;28;20049;-52
2023/06/13 02:38:31;;;;;;;2.53;2.33;;;;;;;24.58;58.97;98074.69;2071597;28;20451;-50
2023/06/13 02:39:32;;;;;;;3.15;2.85;;;;;;;24.59;58.72;98070.91;2068773;28;20076;-49
2023/06/13 02:40:36;;;;;;;2.88;2.20;;;;;;;24.58;58.62;98075.50;2070097;28;20416;-51
2023/06/13 02:41:37;;;;;;;3.20;2.45;;;;;;;24.60;58.51;98067.94;2071435;28;20054;-52
2023/06/13 02:42:39;;;;;;;2.55;2.35;;;;;;;24.58;58.51;98075.50;2069675;28;20050;-53
2023/06/13 02:43:39;;;;;;;2.15;1.95;;;;;;;24.59;58.78;98069.00;2068501;28;20054;-54
2023/06/13 02:44:44;;;;;;;3.28;2.63;;;;;;;24.58;58.65;98072.00;2069954;28;20050;-52
2023/06/13 02:45:44;;;;;;;2.53;2.30;;;;;;;24.59;58.69;98063.59;2069971;28;20053;-50
2023/06/13 02:46:46;;;;;;;2.08;1.98;;;;;;;24.59;58.75;98066.28;2071927;28;20148;-50
2023/06/13 02:47:47;;;;;;;2.70;2.50;;;;;;;24.58;58.69;98064.66;2070958;28;20514;-55
2023/06/13 02:48:49;;;;;;;3.40;2.33;;;;;;;24.58;58.72;98059.25;2071725;28;20056;-52
2023/06/13 02:49:50;;;;;;;2.15;1.80;;;;;;;24.58;58.90;98063.84;2072704;28;20150;-49
2023/06/13 02:50:53;;;;;;;2.30;2.08;;;;;;;24.58;59.04;98059.25;2073147;28;20591;-50
2023/06/13 02:51:54;;;;;;;5.55;2.85;;;;;;;24.60;59.00;98062.53;2070953;28;20154;-48
2023/06/13 02:52:56;;;;;;;2.40;2.10;;;;;;;24.60;58.82;98061.69;2067243;28;20141;-53
2023/06/13 02:53:56;;;;;;;2.28;2.00;;;;;;;24.57;58.68;98057.59;2069418;28;20423;-53
2023/06/13 02:54:58;;;;;;;2.22;1.85;;;;;;;24.59;59.17;98065.47;2066581;28;20612;-49
2023/06/13 02:55:59;;;;;;;2.58;2.38;;;;;;;24.59;59.09;98060.06;2069937;28;20140;-48
2023/06/13 02:57:01;;;;;;;3.50;2.25;;;;;;;24.60;58.90;98056.25;2069890;28;20057;-54
2023/06/13 02:58:02;;;;;;;2.22;2.00;;;;;;;24.57;59.24;98057.59;2069682;28;20076;-54
2023/06/13 02:59:04;;;;;;;2.15;1.95;;;;;;;24.58;59.04;98059.25;2068132;28;20601;-54
2023/06/13 03:00:09;;;;;;;2.22;2.00;;;;;;;24.59;58.88;98065.47;2067021;28;20064;-54
2023/06/13 03:01:12;;;;;;;2.50;2.00;;;;;;;24.57;59.14;98060.31;2068704;28;20057;-52
2023/06/13 03:02:12;;;;;;;2.88;2.10;;;;;;;24.57;58.99;98065.72;2072390;28;20118;-55
2023/06/13 03:03:18;;;;;;;2.33;2.13;;;;;;;24.58;58.83;98064.66;2068005;28;20057;-53
2023/06/13 03:04:18;;;;;;;2.72;2.28;;;;;;;24.58;59.16;98066.56;2069334;28;20061;-52
2023/06/13 03:05:20;;;;;;;2.78;2.25;;;;;;;24.57;59.14;98068.44;2070370;28;20133;-53
2023/06/13 03:06:24;;;;;;;2.28;2.05;;;;;;;24.57;58.86;98060.31;2071119;28;20107;-53
2023/06/13 03:07:30;;;;;;;2.13;1.77;;;;;;;24.57;59.00;98059.50;2067375;28;20115;-53
2023/06/13 03:08:32;;;;;;;3.13;2.55;;;;;;;24.56;58.84;98061.38;2067485;28;20567;-53
2023/06/13 03:09:33;;;;;;;3.13;2.40;;;;;;;24.57;58.99;98063.00;2068613;28;20136;-51
2023/06/13 03:10:35;;;;;;;2.42;2.22;;;;;;;24.58;58.65;98061.97;2070579;28;20511;-48
2023/06/13 03:11:36;;;;;;;2.13;1.92;;;;;;;24.57;58.51;98059.50;2068488;28;20530;-52
2023/06/13 03:12:38;;;;;;;2.17;1.98;;;;;;;24.56;58.87;98050.53;2069714;28;20054;-54
2023/06/13 03:13:39;;;;;;;2.30;2.08;;;;;;;24.56;58.88;98053.25;2066516;28;20049;-53
2023/06/13 03:14:41;;;;;;;2.00;1.77;;;;;;;24.56;58.88;98055.97;2069396;28;20684;-52
2023/06/13 03:15:45;;;;;;;4.43;2.00;;;;;;;24.56;58.92;98050.53;2069338;28;20049;-52
2023/06/13 03:16:47;;;;;;;2.15;1.95;;;;;;;24.56;58.60;98061.38;2069116;28;20907;-50
2023/06/13 03:17:48;;;;;;;2.50;2.08;;;;;;;24.56;58.66;98055.97;2067548;28;20054;-50
2023/06/13 03:18:50;;;;;;;2.40;2.20;;;;;;;24.58;58.51;98061.97;2072379;28;20281;-51
2023/06/13 03:19:51;;;;;;;1.80;1.70;;;;;;;24.57;58.80;98057.59;2064065;28;20061;-50
2023/06/13 03:20:53;;;;;;;2.00;1.80;;;;;;;24.58;58.68;98059.25;2069968;28;20476;-52
2023/06/13 03:21:53;;;;;;;3.17;2.40;;;;;;;24.58;59.01;98064.66;2067909;28;20729;-48
2023/06/13 03:22:55;;;;;;;2.20;2.00;;;;;;;24.59;58.36;98066.28;2069970;28;20050;-53
2023/06/13 03:23:56;;;;;;;2.50;2.30;;;;;;;24.57;58.44;98060.31;2068912;28;20073;-51
2023/06/13 03:25:04;;;;;;;2.72;2.53;;;;;;;24.57;58.62;98065.72;2071474;28;20460;-51
2023/06/13 03:26:06;;;;;;;3.00;1.98;;;;;;;24.57;58.29;98063.00;2067926;28;20209;-48
2023/06/13 03:27:08;;;;;;;2.17;1.98;;;;;;;24.58;59.10;98074.69;2068547;28;20057;-51
2023/06/13 03:28:09;;;;;;;2.25;2.05;;;;;;;24.57;58.62;98065.72;2066223;28;20053;-55
2023/06/13 03:29:11;;;;;;;2.30;2.10;;;;;;;24.58;58.85;98066.56;2070663;28;20151;-53
2023/06/13 03:30:12;;;;;;;2.35;2.10;;;;;;;24.57;58.76;98065.72;2068036;28;20053;-53
2023/06/13 03:31:16;;;;;;;2.97;2.20;;;;;;;24.58;58.37;98066.56;2068819;28;20479;-53
2023/06/13 03:32:16;;;;;;;3.05;2.42;;;;;;;24.56;58.80;98072.22;2066701;28;20423;-51
2023/06/13 03:33:18;;;;;;;2.72;2.03;;;;;;;24.56;58.75;98072.22;2071458;28;20059;-48
2023/06/13 03:34:25;;;;;;;2.70;2.33;;;;;;;24.57;58.69;98068.44;2070165;28;20046;-51
2023/06/13 03:35:27;;;;;;;3.33;2.17;;;;;;;24.56;58.55;98063.28;2071875;28;20477;-49
2023/06/13 03:36:29;;;;;;;2.25;2.03;;;;;;;24.56;58.66;98074.13;2073474;28;20049;-51
2023/06/13 03:37:29;;;;;;;5.05;2.47;;;;;;;24.57;58.84;98073.84;2070851;28;20061;-49
2023/06/13 03:38:31;;;;;;;2.47;2.28;;;;;;;24.56;58.86;98069.53;2066137;28;20509;-56
2023/06/13 03:39:33;;;;;;;3.13;2.17;;;;;;;24.55;58.73;98073.31;2069074;28;20565;-50
2023/06/13 03:40:34;;;;;;;2.33;2.13;;;;;;;24.56;59.03;98074.13;2068265;28;20119;-53
2023/06/13 03:41:36;;;;;;;2.25;2.05;;;;;;;24.56;58.63;98069.53;2072631;28;20494;-49
2023/06/13 03:42:37;;;;;;;2.53;2.33;;;;;;;24.55;58.78;98067.09;2068848;28;20049;-50
2023/06/13 03:43:38;;;;;;;2.55;2.35;;;;;;;24.55;59.04;98076.03;2073333;28;20133;-55
2023/06/13 03:44:41;;;;;;;3.58;2.15;;;;;;;24.53;59.09;98076.28;2065976;28;20073;-52
2023/06/13 03:45:41;;;;;;;2.72;2.47;;;;;;;24.55;58.76;98070.59;2070956;28;20492;-50
2023/06/13 03:46:45;;;;;;;3.58;2.33;;;;;;;24.57;58.90;98078.47;2071271;28;20050;-50
2023/06/13 03:47:45;;;;;;;2.60;2.38;;;;;;;24.55;59.13;98073.31;2071443;28;20066;-48
2023/06/13 03:48:49;;;;;;;1.95;1.77;;;;;;;24.55;58.93;98078.75;2071868;28;20071;-50
2023/06/13 03:49:50;;;;;;;2.22;2.03;;;;;;;24.56;58.78;98074.94;2064962;28;21177;-54
2023/06/13 03:50:52;;;;;;;3.08;2.20;;;;;;;24.55;59.03;98076.03;2068670;28;20491;-54
2023/06/13 03:51:53;;;;;;;2.30;2.05;;;;;;;24.56;59.01;98074.94;2069934;28;20045;-52
2023/06/13 03:52:54;;;;;;;4.32;2.80;;;;;;;24.55;58.84;98081.44;2071452;28;20048;-50
2023/06/13 03:53:55;;;;;;;2.42;2.22;;;;;;;24.54;59.32;98079.78;2069284;28;20559;-55
2023/06/13 03:54:57;;;;;;;3.58;2.15;;;;;;;24.55;59.05;98081.44;2069239;28;20064;-49
2023/06/13 03:55:58;;;;;;;2.65;2.45;;;;;;;24.54;59.15;98087.94;2068146;28;20530;-48
2023/06/13 03:57:00;;;;;;;3.50;2.10;;;;;;;24.54;59.21;98085.22;2073317;28;20072;-54
2023/06/13 03:58:00;;;;;;;3.13;2.53;;;;;;;24.56;58.91;98082.25;2071655;28;20045;-48
2023/06/13 03:59:02;;;;;;;2.28;2.05;;;;;;;24.55;59.30;98086.88;2073923;28;20532;-54
2023/06/13 04:00:04;;;;;;;1.85;1.50;;;;;;;24.55;58.95;98089.59;2070715;28;20041;-51
2023/06/13 04:01:08;;;;;;;3.60;2.15;;;;;;;24.54;59.02;98087.94;2070170;28;20058;-50
2023/06/13 04:02:13;;;;;;;4.93;2.30;;;;;;;24.54;59.36;98098.78;2069587;28;20527;-52
2023/06/13 04:03:15;;;;;;;4.45;2.20;;;;;;;24.52;59.42;98093.63;2070665;28;20302;-51
2023/06/13 04:04:16;;;;;;;2.90;2.30;;;;;;;24.53;59.02;98094.44;2071402;28;20084;-53
2023/06/13 04:05:17;;;;;;;4.00;2.47;;;;;;;24.55;59.69;98097.72;2068235;28;20057;-51
2023/06/13 04:06:18;;;;;;;1.98;1.83;;;;;;;24.55;59.22;98097.72;2071388;28;20175;-50
2023/06/13 04:07:21;;;;;;;2.55;2.28;;;;;;;24.53;58.89;98100.66;2067695;28;20492;-54
2023/06/13 04:08:21;;;;;;;3.75;2.00;;;;;;;24.53;59.32;98094.44;2067440;28;20049;-48
2023/06/13 04:09:23;;;;;;;2.22;1.98;;;;;;;24.54;59.42;98101.50;2068140;28;20084;-53
2023/06/13 04:10:24;;;;;;;2.90;1.98;;;;;;;24.52;59.60;98096.34;2069680;28;20077;-54
2023/06/13 04:11:26;;;;;;;3.10;2.50;;;;;;;24.52;59.30;98098.22;2071118;28;20050;-55
2023/06/13 04:12:27;;;;;;;2.65;2.45;;;;;;;24.53;59.58;98089.00;2069571;28;20058;-50
2023/06/13 04:13:29;;;;;;;2.40;2.20;;;;;;;24.53;59.61;98091.72;2067314;28;20053;-52
2023/06/13 04:14:32;;;;;;;2.50;2.13;;;;;;;24.53;59.41;98089.81;2064547;28;20057;-56
2023/06/13 04:15:34;;;;;;;2.55;2.35;;;;;;;24.54;59.44;98093.34;2070214;28;20050;-50
2023/06/13 04:16:35;;;;;;;2.53;2.17;;;;;;;24.53;59.29;98092.53;2069880;28;20221;-53
2023/06/13 04:17:38;;;;;;;2.60;2.40;;;;;;;24.53;59.21;98089.00;2068931;28;20163;-47
2023/06/13 04:18:40;;;;;;;2.00;1.75;;;;;;;24.54;59.25;98098.78;2069795;28;20049;-50
2023/06/13 04:19:41;;;;;;;2.97;2.10;;;;;;;24.53;59.52;98095.25;2064657;28;20045;-53
2023/06/13 04:20:43;;;;;;;3.70;2.40;;;;;;;24.54;59.54;98090.63;2067716;28;20523;-47
2023/06/13 04:21:45;;;;;;;2.13;1.92;;;;;;;24.54;59.86;98085.22;2069015;28;20049;-51
2023/06/13 04:22:47;;;;;;;3.80;2.10;;;;;;;24.53;59.71;98086.31;2067710;28;20065;-55
2023/06/13 04:23:48;;;;;;;2.63;2.10;;;;;;;24.53;59.36;98083.59;2070492;28;20140;-48
2023/06/13 04:24:51;;;;;;;2.30;2.10;;;;;;;24.55;59.75;98094.19;2067731;28;20324;-53
2023/06/13 04:25:52;;;;;;;2.20;2.00;;;;;;;24.54;59.28;98087.94;2066736;28;20561;-55
2023/06/13 04:26:54;;;;;;;2.25;1.98;;;;;;;24.54;59.44;98093.34;2071259;28;20053;-52
2023/06/13 04:27:57;;;;;;;2.88;2.53;;;;;;;24.54;59.55;98096.06;2067275;28;20664;-53
2023/06/13 04:29:01;;;;;;;3.15;1.88;;;;;;;24.52;59.61;98093.63;2069017;28;20068;-53
2023/06/13 04:30:02;;;;;;;2.50;2.30;;;;;;;24.52;59.78;98084.69;2066074;28;20050;-47
2023/06/13 04:31:04;;;;;;;2.20;2.00;;;;;;;24.53;59.34;98094.44;2069577;28;20352;-49
2023/06/13 04:32:07;;;;;;;2.22;2.03;;;;;;;24.53;59.60;98091.72;2065223;28;20053;-51
2023/06/13 04:33:16;;;;;;;2.53;2.33;;;;;;;24.55;59.86;98086.88;2068446;28;20115;-48
2023/06/13 04:34:20;;;;;;;1.98;1.88;;;;;;;24.52;59.85;98087.38;2069800;28;20561;-51
2023/06/13 04:35:22;;;;;;;2.30;2.08;;;;;;;24.52;59.76;98081.97;2069677;28;20076;-50
2023/06/13 04:36:23;;;;;;;2.83;2.13;;;;;;;24.51;59.90;98086.53;2069083;28;20541;-53
2023/06/13 04:37:26;;;;;;;2.80;2.40;;;;;;;24.53;59.75;98089.00;2068604;28;20045;-55
2023/06/13 04:38:29;;;;;;;2.75;2.22;;;;;;;24.53;59.56;98087.13;2067542;28;20054;-47
2023/06/13 04:39:31;;;;;;;2.55;1.90;;;;;;;24.52;59.44;98090.91;2065057;28;20061;-52
2023/06/13 04:40:33;;;;;;;2.22;1.90;;;;;;;24.53;59.62;98095.25;2069431;28;20041;-57
2023/06/13 04:41:35;;;;;;;2.42;2.22;;;;;;;24.53;59.22;98094.44;2068425;28;20067;-54
2023/06/13 04:42:37;;;;;;;2.80;2.05;;;;;;;24.53;59.78;98097.97;2068487;28;20378;-48
2023/06/13 04:43:41;;;;;;;2.67;2.40;;;;;;;24.51;59.20;98097.38;2066753;28;20068;-55
2023/06/13 04:44:45;;;;;;;2.70;2.50;;;;;;;24.51;59.53;98093.88;2068983;28;20135;-49
2023/06/13 04:45:48;;;;;;;3.03;1.98;;;;;;;24.51;59.91;98108.22;2062754;28;20075;-51
2023/06/13 04:46:50;;;;;;;2.47;2.00;;;;;;;24.52;59.37;98104.47;2070248;28;20049;-52
2023/06/13 04:47:57;;;;;;;2.65;1.90;;;;;;;24.52;59.79;98103.66;2066257;28;20053;-47
2023/06/13 04:48:59;;;;;;;2.30;2.10;;;;;;;24.51;59.45;98108.22;2068024;28;20295;-48
2023/06/13 04:50:00;;;;;;;3.25;1.92;;;;;;;24.51;59.75;98102.81;2067696;28;20443;-50
2023/06/13 04:51:02;;;;;;;2.65;2.15;;;;;;;24.51;59.60;98116.38;2069877;28;20054;-53
2023/06/13 04:52:04;;;;;;;2.35;2.15;;;;;;;24.52;59.68;98117.22;2064494;28;20057;-50
2023/06/13 04:53:07;;;;;;;2.38;1.80;;;;;;;24.51;59.38;98120.97;2070354;28;20050;-51
2023/06/13 04:54:09;;;;;;;2.33;2.13;;;;;;;24.52;59.93;98123.44;2069485;28;20384;-48
2023/06/13 04:55:10;;;;;;;2.42;2.22;;;;;;;24.51;59.61;98129.09;2071148;28;20057;-53